sensor_id;sensor_type;location;lat;lon;timestamp;temperature;humidity
5834;DHT22;2943;48.012;10.968;2023-03-08T00:00:41;2.70;99.90
5834;DHT22;2943;48.012;10.968;2023-03-08T00:03:12;2.60;99.90
5834;DHT22;2943;48.012;10.968;2023-03-08T00:05:39;2.60;99.90
5834;DHT22;2943;48.012;10.968;2023-03-08T00:08:06;2.60;99.90
5834;DHT22;2943;48.012;10.968;2023-03-08T00:10:33;2.60;99.90
5834;DHT22;2943;48.012;10.968;2023-03-08T00:13:01;2.60;99.90
5834;DHT22;2943;48.012;10.968;2023-03-08T00:15:28;2.60;99.90
5834;DHT22;2943;48.012;10.968;2023-03-08T00:17:54;2.60;99.90
5834;DHT22;2943;48.012;10.968;2023-03-08T00:20:21;2.60;99.90
5834;DHT22;2943;48.012;10.968;2023-03-08T00:22:48;2.60;99.90
5834;DHT22;2943;48.012;10.968;2023-03-08T00:25:15;2.60;99.90
5834;DHT22;2943;48.012;10.968;2023-03-08T00:27:42;2.60;99.90
5834;DHT22;2943;48.012;10.968;2023-03-08T00:30:12;2.60;99.90
5834;DHT22;2943;48.012;10.968;2023-03-08T00:32:39;2.60;99.90
5834;DHT22;2943;48.012;10.968;2023-03-08T00:35:06;2.60;99.90
5834;DHT22;2943;48.012;10.968;2023-03-08T00:37:33;2.60;99.90
5834;DHT22;2943;48.012;10.968;2023-03-08T00:40:00;2.60;99.90
5834;DHT22;2943;48.012;10.968;2023-03-08T00:42:27;2.60;99.90
5834;DHT22;2943;48.012;10.968;2023-03-08T00:44:54;2.60;99.90
5834;DHT22;2943;48.012;10.968;2023-03-08T00:47:22;2.60;99.90
5834;DHT22;2943;48.012;10.968;2023-03-08T00:49:48;2.50;99.90
5834;DHT22;2943;48.012;10.968;2023-03-08T00:52:15;2.50;99.90
5834;DHT22;2943;48.012;10.968;2023-03-08T00:54:42;2.50;99.90
5834;DHT22;2943;48.012;10.968;2023-03-08T00:57:09;2.50;99.90
5834;DHT22;2943;48.012;10.968;2023-03-08T00:59:35;2.50;99.90
5834;DHT22;2943;48.012;10.968;2023-03-08T01:02:02;2.40;99.90
5834;DHT22;2943;48.012;10.968;2023-03-08T01:04:31;2.40;99.90
5834;DHT22;2943;48.012;10.968;2023-03-08T01:06:59;2.30;99.90
5834;DHT22;2943;48.012;10.968;2023-03-08T01:09:26;2.30;99.90
5834;DHT22;2943;48.012;10.968;2023-03-08T01:11:52;2.30;99.90
5834;DHT22;2943;48.012;10.968;2023-03-08T01:14:19;2.30;99.90
5834;DHT22;2943;48.012;10.968;2023-03-08T01:16:46;2.30;99.90
5834;DHT22;2943;48.012;10.968;2023-03-08T01:19:13;2.30;99.90
5834;DHT22;2943;48.012;10.968;2023-03-08T01:21:41;2.20;99.90
5834;DHT22;2943;48.012;10.968;2023-03-08T01:24:07;2.20;99.90
5834;DHT22;2943;48.012;10.968;2023-03-08T01:26:34;2.20;99.90
5834;DHT22;2943;48.012;10.968;2023-03-08T01:29:01;2.20;99.90
5834;DHT22;2943;48.012;10.968;2023-03-08T01:31:29;2.20;99.90
5834;DHT22;2943;48.012;10.968;2023-03-08T01:33:56;2.20;99.90
5834;DHT22;2943;48.012;10.968;2023-03-08T01:36:25;2.10;99.90
5834;DHT22;2943;48.012;10.968;2023-03-08T01:38:54;2.10;99.90
5834;DHT22;2943;48.012;10.968;2023-03-08T01:41:22;2.10;99.90
5834;DHT22;2943;48.012;10.968;2023-03-08T01:43:51;2.00;99.90
5834;DHT22;2943;48.012;10.968;2023-03-08T01:46:25;2.00;99.90
5834;DHT22;2943;48.012;10.968;2023-03-08T01:48:57;2.00;99.90
5834;DHT22;2943;48.012;10.968;2023-03-08T01:51:29;2.00;99.90
5834;DHT22;2943;48.012;10.968;2023-03-08T01:54:00;2.00;99.90
5834;DHT22;2943;48.012;10.968;2023-03-08T01:56:27;2.00;99.90
5834;DHT22;2943;48.012;10.968;2023-03-08T01:58:54;2.00;99.90
5834;DHT22;2943;48.012;10.968;2023-03-08T02:01:23;1.90;99.90
5834;DHT22;2943;48.012;10.968;2023-03-08T02:03:50;1.90;99.90
5834;DHT22;2943;48.012;10.968;2023-03-08T02:06:18;1.90;99.90
5834;DHT22;2943;48.012;10.968;2023-03-08T02:08:46;1.80;99.90
5834;DHT22;2943;48.012;10.968;2023-03-08T02:11:15;1.80;99.90
5834;DHT22;2943;48.012;10.968;2023-03-08T02:13:42;1.80;99.90
5834;DHT22;2943;48.012;10.968;2023-03-08T02:16:12;1.80;99.90
5834;DHT22;2943;48.012;10.968;2023-03-08T02:18:49;1.80;99.90
5834;DHT22;2943;48.012;10.968;2023-03-08T02:21:16;1.80;99.90
5834;DHT22;2943;48.012;10.968;2023-03-08T02:23:44;1.70;99.90
5834;DHT22;2943;48.012;10.968;2023-03-08T02:26:11;1.70;99.90
5834;DHT22;2943;48.012;10.968;2023-03-08T02:28:38;1.70;99.90
5834;DHT22;2943;48.012;10.968;2023-03-08T02:31:06;1.70;99.90
5834;DHT22;2943;48.012;10.968;2023-03-08T02:33:32;1.60;99.90
5834;DHT22;2943;48.012;10.968;2023-03-08T02:36:00;1.60;99.90
5834;DHT22;2943;48.012;10.968;2023-03-08T02:38:28;1.60;99.90
5834;DHT22;2943;48.012;10.968;2023-03-08T02:40:56;1.60;99.90
5834;DHT22;2943;48.012;10.968;2023-03-08T02:43:23;1.50;99.90
5834;DHT22;2943;48.012;10.968;2023-03-08T02:45:50;1.50;99.90
5834;DHT22;2943;48.012;10.968;2023-03-08T02:48:17;1.50;99.90
5834;DHT22;2943;48.012;10.968;2023-03-08T02:50:44;1.50;99.90
5834;DHT22;2943;48.012;10.968;2023-03-08T02:53:11;1.50;99.90
5834;DHT22;2943;48.012;10.968;2023-03-08T02:55:38;1.50;99.90
5834;DHT22;2943;48.012;10.968;2023-03-08T02:58:07;1.50;99.90
5834;DHT22;2943;48.012;10.968;2023-03-08T03:00:34;1.50;99.90
5834;DHT22;2943;48.012;10.968;2023-03-08T03:03:01;1.40;99.90
5834;DHT22;2943;48.012;10.968;2023-03-08T03:05:28;1.50;99.90
5834;DHT22;2943;48.012;10.968;2023-03-08T03:07:55;1.40;99.90
5834;DHT22;2943;48.012;10.968;2023-03-08T03:10:23;1.40;99.90
5834;DHT22;2943;48.012;10.968;2023-03-08T03:12:50;1.40;99.90
5834;DHT22;2943;48.012;10.968;2023-03-08T03:15:18;1.40;99.90
5834;DHT22;2943;48.012;10.968;2023-03-08T03:17:45;1.40;99.90
5834;DHT22;2943;48.012;10.968;2023-03-08T03:20:12;1.40;99.90
5834;DHT22;2943;48.012;10.968;2023-03-08T03:22:39;1.50;99.90
5834;DHT22;2943;48.012;10.968;2023-03-08T03:25:06;1.50;99.90
5834;DHT22;2943;48.012;10.968;2023-03-08T03:27:33;1.50;99.90
5834;DHT22;2943;48.012;10.968;2023-03-08T03:30:00;1.50;99.90
5834;DHT22;2943;48.012;10.968;2023-03-08T03:32:28;1.50;99.90
5834;DHT22;2943;48.012;10.968;2023-03-08T03:34:55;1.50;99.90
5834;DHT22;2943;48.012;10.968;2023-03-08T03:37:22;1.60;99.90
5834;DHT22;2943;48.012;10.968;2023-03-08T03:39:49;1.60;99.90
5834;DHT22;2943;48.012;10.968;2023-03-08T03:42:16;1.50;99.90
5834;DHT22;2943;48.012;10.968;2023-03-08T03:44:43;1.50;99.90
5834;DHT22;2943;48.012;10.968;2023-03-08T03:47:10;1.40;99.90
5834;DHT22;2943;48.012;10.968;2023-03-08T03:49:38;1.40;99.90
5834;DHT22;2943;48.012;10.968;2023-03-08T03:52:05;1.40;99.90
5834;DHT22;2943;48.012;10.968;2023-03-08T03:54:32;1.40;99.90
5834;DHT22;2943;48.012;10.968;2023-03-08T03:56:59;1.40;99.90
5834;DHT22;2943;48.012;10.968;2023-03-08T03:59:25;1.40;99.90
5834;DHT22;2943;48.012;10.968;2023-03-08T04:01:52;1.40;99.90
5834;DHT22;2943;48.012;10.968;2023-03-08T04:04:19;1.40;99.90
5834;DHT22;2943;48.012;10.968;2023-03-08T04:06:47;1.40;99.90
5834;DHT22;2943;48.012;10.968;2023-03-08T04:09:16;1.50;99.90
5834;DHT22;2943;48.012;10.968;2023-03-08T04:11:43;1.40;99.90
5834;DHT22;2943;48.012;10.968;2023-03-08T04:14:10;1.40;99.90
5834;DHT22;2943;48.012;10.968;2023-03-08T04:16:38;1.40;99.90
5834;DHT22;2943;48.012;10.968;2023-03-08T04:19:07;1.40;99.90
5834;DHT22;2943;48.012;10.968;2023-03-08T04:21:35;1.50;99.90
5834;DHT22;2943;48.012;10.968;2023-03-08T04:24:04;1.50;99.90
5834;DHT22;2943;48.012;10.968;2023-03-08T04:26:31;1.50;99.90
5834;DHT22;2943;48.012;10.968;2023-03-08T04:28:57;1.60;99.90
5834;DHT22;2943;48.012;10.968;2023-03-08T04:31:26;1.60;99.90
5834;DHT22;2943;48.012;10.968;2023-03-08T04:33:54;1.60;99.90
5834;DHT22;2943;48.012;10.968;2023-03-08T04:36:22;1.60;99.90
5834;DHT22;2943;48.012;10.968;2023-03-08T04:38:49;1.60;99.90
5834;DHT22;2943;48.012;10.968;2023-03-08T04:41:18;1.60;99.90
5834;DHT22;2943;48.012;10.968;2023-03-08T04:43:46;1.70;99.90
5834;DHT22;2943;48.012;10.968;2023-03-08T04:46:14;1.70;99.90
5834;DHT22;2943;48.012;10.968;2023-03-08T04:48:41;1.70;99.90
5834;DHT22;2943;48.012;10.968;2023-03-08T04:51:10;1.70;99.90
5834;DHT22;2943;48.012;10.968;2023-03-08T04:53:37;1.70;99.90
5834;DHT22;2943;48.012;10.968;2023-03-08T04:56:06;1.70;99.90
5834;DHT22;2943;48.012;10.968;2023-03-08T04:58:35;1.70;99.90
5834;DHT22;2943;48.012;10.968;2023-03-08T05:01:08;1.70;99.90
5834;DHT22;2943;48.012;10.968;2023-03-08T05:03:35;1.70;99.90
5834;DHT22;2943;48.012;10.968;2023-03-08T05:06:02;1.70;99.90
5834;DHT22;2943;48.012;10.968;2023-03-08T05:08:29;1.70;99.90
5834;DHT22;2943;48.012;10.968;2023-03-08T05:10:57;1.70;99.90
5834;DHT22;2943;48.012;10.968;2023-03-08T05:13:24;1.70;99.90
5834;DHT22;2943;48.012;10.968;2023-03-08T05:15:52;1.70;99.90
5834;DHT22;2943;48.012;10.968;2023-03-08T05:18:19;1.70;99.90
5834;DHT22;2943;48.012;10.968;2023-03-08T05:20:52;1.70;99.90
5834;DHT22;2943;48.012;10.968;2023-03-08T05:23:19;1.70;99.90
5834;DHT22;2943;48.012;10.968;2023-03-08T05:25:45;1.60;99.90
5834;DHT22;2943;48.012;10.968;2023-03-08T05:28:12;1.60;99.90
5834;DHT22;2943;48.012;10.968;2023-03-08T05:30:40;1.60;99.90
5834;DHT22;2943;48.012;10.968;2023-03-08T05:33:08;1.50;99.90
5834;DHT22;2943;48.012;10.968;2023-03-08T05:35:35;1.50;99.90
5834;DHT22;2943;48.012;10.968;2023-03-08T05:38:02;1.50;99.90
5834;DHT22;2943;48.012;10.968;2023-03-08T05:40:28;1.50;99.90
5834;DHT22;2943;48.012;10.968;2023-03-08T05:42:55;1.50;99.90
5834;DHT22;2943;48.012;10.968;2023-03-08T05:45:22;1.50;99.90
5834;DHT22;2943;48.012;10.968;2023-03-08T05:47:49;1.50;99.90
5834;DHT22;2943;48.012;10.968;2023-03-08T05:50:17;1.50;99.90
5834;DHT22;2943;48.012;10.968;2023-03-08T05:52:44;1.50;99.90
5834;DHT22;2943;48.012;10.968;2023-03-08T05:55:11;1.50;99.90
5834;DHT22;2943;48.012;10.968;2023-03-08T05:57:38;1.50;99.90
5834;DHT22;2943;48.012;10.968;2023-03-08T06:00:06;1.50;99.90
5834;DHT22;2943;48.012;10.968;2023-03-08T06:02:33;1.60;99.90
5834;DHT22;2943;48.012;10.968;2023-03-08T06:05:00;1.60;99.90
5834;DHT22;2943;48.012;10.968;2023-03-08T06:07:28;1.60;99.90
5834;DHT22;2943;48.012;10.968;2023-03-08T06:09:55;1.70;99.90
5834;DHT22;2943;48.012;10.968;2023-03-08T06:12:22;1.70;99.90
5834;DHT22;2943;48.012;10.968;2023-03-08T06:14:49;1.70;99.90
5834;DHT22;2943;48.012;10.968;2023-03-08T06:17:15;1.80;99.90
5834;DHT22;2943;48.012;10.968;2023-03-08T06:19:42;1.80;99.90
5834;DHT22;2943;48.012;10.968;2023-03-08T06:22:09;1.80;99.90
5834;DHT22;2943;48.012;10.968;2023-03-08T06:24:37;1.90;99.90
5834;DHT22;2943;48.012;10.968;2023-03-08T06:27:04;1.90;99.90
5834;DHT22;2943;48.012;10.968;2023-03-08T06:29:31;1.90;99.90
5834;DHT22;2943;48.012;10.968;2023-03-08T06:31:58;1.90;99.90
5834;DHT22;2943;48.012;10.968;2023-03-08T06:34:24;2.00;99.90
5834;DHT22;2943;48.012;10.968;2023-03-08T06:36:51;2.10;99.90
5834;DHT22;2943;48.012;10.968;2023-03-08T06:39:21;2.10;99.90
5834;DHT22;2943;48.012;10.968;2023-03-08T06:41:49;2.10;99.90
5834;DHT22;2943;48.012;10.968;2023-03-08T06:44:16;2.20;99.90
5834;DHT22;2943;48.012;10.968;2023-03-08T06:46:43;2.20;99.90
5834;DHT22;2943;48.012;10.968;2023-03-08T06:49:10;2.20;99.90
5834;DHT22;2943;48.012;10.968;2023-03-08T06:51:37;2.30;99.90
5834;DHT22;2943;48.012;10.968;2023-03-08T06:54:04;2.30;99.90
5834;DHT22;2943;48.012;10.968;2023-03-08T06:56:30;2.30;99.90
5834;DHT22;2943;48.012;10.968;2023-03-08T06:58:58;2.40;99.90
5834;DHT22;2943;48.012;10.968;2023-03-08T07:01:25;2.40;99.90
5834;DHT22;2943;48.012;10.968;2023-03-08T07:03:52;2.40;99.90
5834;DHT22;2943;48.012;10.968;2023-03-08T07:06:19;2.50;99.90
5834;DHT22;2943;48.012;10.968;2023-03-08T07:08:45;2.50;99.90
5834;DHT22;2943;48.012;10.968;2023-03-08T07:11:12;2.60;99.90
5834;DHT22;2943;48.012;10.968;2023-03-08T07:13:39;2.60;99.90
5834;DHT22;2943;48.012;10.968;2023-03-08T07:16:09;2.60;99.90
5834;DHT22;2943;48.012;10.968;2023-03-08T07:18:36;2.60;99.90
5834;DHT22;2943;48.012;10.968;2023-03-08T07:21:03;2.60;99.90
5834;DHT22;2943;48.012;10.968;2023-03-08T07:23:30;2.60;99.90
5834;DHT22;2943;48.012;10.968;2023-03-08T07:25:57;2.70;99.90
5834;DHT22;2943;48.012;10.968;2023-03-08T07:28:23;2.70;99.90
5834;DHT22;2943;48.012;10.968;2023-03-08T07:30:51;2.70;99.90
5834;DHT22;2943;48.012;10.968;2023-03-08T07:33:20;2.80;99.90
5834;DHT22;2943;48.012;10.968;2023-03-08T07:35:47;2.80;99.90
5834;DHT22;2943;48.012;10.968;2023-03-08T07:38:14;2.90;99.90
5834;DHT22;2943;48.012;10.968;2023-03-08T07:40:41;2.90;99.90
5834;DHT22;2943;48.012;10.968;2023-03-08T07:43:09;3.00;99.90
5834;DHT22;2943;48.012;10.968;2023-03-08T07:45:36;3.00;99.90
5834;DHT22;2943;48.012;10.968;2023-03-08T07:48:04;2.90;99.90
5834;DHT22;2943;48.012;10.968;2023-03-08T07:50:32;3.00;99.90
5834;DHT22;2943;48.012;10.968;2023-03-08T07:52:59;3.10;99.90
5834;DHT22;2943;48.012;10.968;2023-03-08T07:55:26;3.20;99.90
5834;DHT22;2943;48.012;10.968;2023-03-08T07:57:53;3.10;99.90
5834;DHT22;2943;48.012;10.968;2023-03-08T08:00:20;3.20;99.90
5834;DHT22;2943;48.012;10.968;2023-03-08T08:02:47;3.20;99.90
5834;DHT22;2943;48.012;10.968;2023-03-08T08:05:16;3.30;99.90
5834;DHT22;2943;48.012;10.968;2023-03-08T08:07:46;3.40;99.90
5834;DHT22;2943;48.012;10.968;2023-03-08T08:10:13;3.50;99.90
5834;DHT22;2943;48.012;10.968;2023-03-08T08:12:40;3.60;99.90
5834;DHT22;2943;48.012;10.968;2023-03-08T08:15:07;3.60;99.90
5834;DHT22;2943;48.012;10.968;2023-03-08T08:17:33;3.70;99.90
5834;DHT22;2943;48.012;10.968;2023-03-08T08:20:00;3.80;99.90
5834;DHT22;2943;48.012;10.968;2023-03-08T08:22:28;3.90;99.90
5834;DHT22;2943;48.012;10.968;2023-03-08T08:24:56;3.90;99.90
5834;DHT22;2943;48.012;10.968;2023-03-08T08:27:22;3.90;99.90
5834;DHT22;2943;48.012;10.968;2023-03-08T08:29:49;3.90;99.90
5834;DHT22;2943;48.012;10.968;2023-03-08T08:32:16;3.90;99.90
5834;DHT22;2943;48.012;10.968;2023-03-08T08:34:43;3.90;99.90
5834;DHT22;2943;48.012;10.968;2023-03-08T08:37:09;3.90;99.90
5834;DHT22;2943;48.012;10.968;2023-03-08T08:39:36;4.00;99.90
5834;DHT22;2943;48.012;10.968;2023-03-08T08:42:06;4.00;99.90
5834;DHT22;2943;48.012;10.968;2023-03-08T08:44:32;4.00;99.90
5834;DHT22;2943;48.012;10.968;2023-03-08T08:46:59;4.00;99.90
5834;DHT22;2943;48.012;10.968;2023-03-08T08:49:26;4.00;99.90
5834;DHT22;2943;48.012;10.968;2023-03-08T08:51:53;4.00;99.90
5834;DHT22;2943;48.012;10.968;2023-03-08T08:54:19;4.10;99.90
5834;DHT22;2943;48.012;10.968;2023-03-08T08:56:46;4.10;99.90
5834;DHT22;2943;48.012;10.968;2023-03-08T08:59:14;4.10;99.90
5834;DHT22;2943;48.012;10.968;2023-03-08T09:01:41;4.10;99.90
5834;DHT22;2943;48.012;10.968;2023-03-08T09:04:10;4.20;99.90
5834;DHT22;2943;48.012;10.968;2023-03-08T09:06:37;4.20;99.90
5834;DHT22;2943;48.012;10.968;2023-03-08T09:09:05;4.20;99.90
5834;DHT22;2943;48.012;10.968;2023-03-08T09:11:33;4.20;99.90
5834;DHT22;2943;48.012;10.968;2023-03-08T09:14:00;4.20;99.90
5834;DHT22;2943;48.012;10.968;2023-03-08T09:16:31;4.20;99.90
5834;DHT22;2943;48.012;10.968;2023-03-08T09:19:00;4.00;99.90
5834;DHT22;2943;48.012;10.968;2023-03-08T09:21:28;4.00;99.90
5834;DHT22;2943;48.012;10.968;2023-03-08T09:23:55;3.90;99.90
5834;DHT22;2943;48.012;10.968;2023-03-08T09:26:22;3.80;99.90
5834;DHT22;2943;48.012;10.968;2023-03-08T09:28:48;3.80;99.90
5834;DHT22;2943;48.012;10.968;2023-03-08T09:31:16;3.70;99.90
5834;DHT22;2943;48.012;10.968;2023-03-08T09:33:46;3.70;99.90
5834;DHT22;2943;48.012;10.968;2023-03-08T09:36:13;3.70;99.90
5834;DHT22;2943;48.012;10.968;2023-03-08T09:38:41;3.80;99.90
5834;DHT22;2943;48.012;10.968;2023-03-08T09:41:23;3.80;99.90
5834;DHT22;2943;48.012;10.968;2023-03-08T09:44:03;3.90;99.90
5834;DHT22;2943;48.012;10.968;2023-03-08T09:46:35;4.00;99.90
5834;DHT22;2943;48.012;10.968;2023-03-08T09:49:10;4.10;99.90
5834;DHT22;2943;48.012;10.968;2023-03-08T09:51:41;4.10;99.90
5834;DHT22;2943;48.012;10.968;2023-03-08T09:54:12;4.10;99.90
5834;DHT22;2943;48.012;10.968;2023-03-08T09:56:42;4.20;99.90
5834;DHT22;2943;48.012;10.968;2023-03-08T09:59:13;4.20;99.90
5834;DHT22;2943;48.012;10.968;2023-03-08T10:01:46;4.20;99.90
5834;DHT22;2943;48.012;10.968;2023-03-08T10:04:31;4.30;99.90
5834;DHT22;2943;48.012;10.968;2023-03-08T10:07:12;4.30;99.90
5834;DHT22;2943;48.012;10.968;2023-03-08T10:09:45;4.30;99.90
5834;DHT22;2943;48.012;10.968;2023-03-08T10:12:21;4.30;99.90
5834;DHT22;2943;48.012;10.968;2023-03-08T10:14:50;4.40;99.90
5834;DHT22;2943;48.012;10.968;2023-03-08T10:17:20;4.40;99.90
5834;DHT22;2943;48.012;10.968;2023-03-08T10:19:53;4.50;99.90
5834;DHT22;2943;48.012;10.968;2023-03-08T10:22:25;4.60;99.90
5834;DHT22;2943;48.012;10.968;2023-03-08T10:24:56;4.60;99.90
5834;DHT22;2943;48.012;10.968;2023-03-08T10:27:26;4.70;99.90
5834;DHT22;2943;48.012;10.968;2023-03-08T10:29:55;4.70;99.90
5834;DHT22;2943;48.012;10.968;2023-03-08T10:32:24;4.80;99.90
5834;DHT22;2943;48.012;10.968;2023-03-08T10:34:52;4.80;99.90
5834;DHT22;2943;48.012;10.968;2023-03-08T10:37:29;4.90;99.90
5834;DHT22;2943;48.012;10.968;2023-03-08T10:39:56;4.90;99.90
5834;DHT22;2943;48.012;10.968;2023-03-08T10:42:29;4.90;99.90
5834;DHT22;2943;48.012;10.968;2023-03-08T10:44:59;5.00;99.90
5834;DHT22;2943;48.012;10.968;2023-03-08T10:47:28;5.00;99.90
5834;DHT22;2943;48.012;10.968;2023-03-08T10:50:05;5.10;99.90
5834;DHT22;2943;48.012;10.968;2023-03-08T10:52:36;5.00;99.90
5834;DHT22;2943;48.012;10.968;2023-03-08T10:55:04;5.10;99.90
5834;DHT22;2943;48.012;10.968;2023-03-08T10:57:32;5.10;99.90
5834;DHT22;2943;48.012;10.968;2023-03-08T11:00:02;5.00;99.90
5834;DHT22;2943;48.012;10.968;2023-03-08T11:02:32;5.00;99.90
5834;DHT22;2943;48.012;10.968;2023-03-08T11:04:59;5.10;99.90
5834;DHT22;2943;48.012;10.968;2023-03-08T11:07:29;5.20;99.90
5834;DHT22;2943;48.012;10.968;2023-03-08T11:10:16;5.20;99.90
5834;DHT22;2943;48.012;10.968;2023-03-08T11:12:43;5.30;99.90
5834;DHT22;2943;48.012;10.968;2023-03-08T11:15:14;5.40;99.90
5834;DHT22;2943;48.012;10.968;2023-03-08T11:17:46;5.40;99.90
5834;DHT22;2943;48.012;10.968;2023-03-08T11:20:21;5.50;99.90
5834;DHT22;2943;48.012;10.968;2023-03-08T11:23:11;5.60;99.90
5834;DHT22;2943;48.012;10.968;2023-03-08T11:25:44;5.60;99.90
5834;DHT22;2943;48.012;10.968;2023-03-08T11:28:33;5.70;99.90
5834;DHT22;2943;48.012;10.968;2023-03-08T11:31:15;5.80;99.90
5834;DHT22;2943;48.012;10.968;2023-03-08T11:34:13;5.90;99.90
5834;DHT22;2943;48.012;10.968;2023-03-08T11:36:46;6.00;99.90
5834;DHT22;2943;48.012;10.968;2023-03-08T11:39:25;6.20;99.90
5834;DHT22;2943;48.012;10.968;2023-03-08T11:41:59;6.40;99.90
5834;DHT22;2943;48.012;10.968;2023-03-08T11:44:43;6.60;99.90
5834;DHT22;2943;48.012;10.968;2023-03-08T11:47:44;6.80;99.90
5834;DHT22;2943;48.012;10.968;2023-03-08T11:50:20;7.00;99.90
5834;DHT22;2943;48.012;10.968;2023-03-08T11:52:58;7.20;99.90
5834;DHT22;2943;48.012;10.968;2023-03-08T11:55:38;7.40;99.90
5834;DHT22;2943;48.012;10.968;2023-03-08T11:58:13;7.50;99.90
5834;DHT22;2943;48.012;10.968;2023-03-08T12:00:46;7.70;99.90
5834;DHT22;2943;48.012;10.968;2023-03-08T12:03:15;7.80;99.90
5834;DHT22;2943;48.012;10.968;2023-03-08T12:05:46;8.00;99.90
5834;DHT22;2943;48.012;10.968;2023-03-08T12:08:17;8.20;99.90
5834;DHT22;2943;48.012;10.968;2023-03-08T12:10:53;8.40;99.90
5834;DHT22;2943;48.012;10.968;2023-03-08T12:13:24;8.50;99.90
5834;DHT22;2943;48.012;10.968;2023-03-08T12:15:54;8.70;99.90
5834;DHT22;2943;48.012;10.968;2023-03-08T12:18:28;8.80;99.90
5834;DHT22;2943;48.012;10.968;2023-03-08T12:21:04;9.00;99.90
5834;DHT22;2943;48.012;10.968;2023-03-08T12:23:38;9.20;99.90
5834;DHT22;2943;48.012;10.968;2023-03-08T12:26:12;9.40;99.90
5834;DHT22;2943;48.012;10.968;2023-03-08T12:28:44;9.50;99.90
5834;DHT22;2943;48.012;10.968;2023-03-08T12:31:22;9.60;99.90
5834;DHT22;2943;48.012;10.968;2023-03-08T12:33:50;9.70;99.90
5834;DHT22;2943;48.012;10.968;2023-03-08T12:36:18;9.80;99.90
5834;DHT22;2943;48.012;10.968;2023-03-08T12:38:47;9.80;99.90
5834;DHT22;2943;48.012;10.968;2023-03-08T12:41:25;9.90;99.90
5834;DHT22;2943;48.012;10.968;2023-03-08T12:44:03;9.90;99.90
5834;DHT22;2943;48.012;10.968;2023-03-08T12:46:48;9.90;99.90
5834;DHT22;2943;48.012;10.968;2023-03-08T12:49:20;9.80;99.90
5834;DHT22;2943;48.012;10.968;2023-03-08T12:51:59;9.80;99.90
5834;DHT22;2943;48.012;10.968;2023-03-08T12:54:29;9.80;99.90
5834;DHT22;2943;48.012;10.968;2023-03-08T12:56:59;9.80;99.90
5834;DHT22;2943;48.012;10.968;2023-03-08T12:59:34;9.80;99.90
5834;DHT22;2943;48.012;10.968;2023-03-08T13:04:45;9.80;99.90
5834;DHT22;2943;48.012;10.968;2023-03-08T13:07:19;9.70;99.90
5834;DHT22;2943;48.012;10.968;2023-03-08T13:09:53;9.80;99.90
5834;DHT22;2943;48.012;10.968;2023-03-08T13:12:31;9.80;99.90
5834;DHT22;2943;48.012;10.968;2023-03-08T13:15:07;9.70;99.90
5834;DHT22;2943;48.012;10.968;2023-03-08T13:17:49;9.70;99.90
5834;DHT22;2943;48.012;10.968;2023-03-08T13:20:18;9.70;99.90
5834;DHT22;2943;48.012;10.968;2023-03-08T13:22:55;9.70;99.90
5834;DHT22;2943;48.012;10.968;2023-03-08T13:25:41;9.70;99.90
5834;DHT22;2943;48.012;10.968;2023-03-08T13:28:12;9.70;99.90
5834;DHT22;2943;48.012;10.968;2023-03-08T13:30:44;9.70;99.90
5834;DHT22;2943;48.012;10.968;2023-03-08T13:33:13;9.70;99.90
5834;DHT22;2943;48.012;10.968;2023-03-08T13:35:40;9.80;99.90
5834;DHT22;2943;48.012;10.968;2023-03-08T13:38:19;9.70;99.90
5834;DHT22;2943;48.012;10.968;2023-03-08T13:40:50;9.80;99.90
5834;DHT22;2943;48.012;10.968;2023-03-08T13:43:20;9.80;99.90
5834;DHT22;2943;48.012;10.968;2023-03-08T13:45:48;9.80;99.90
5834;DHT22;2943;48.012;10.968;2023-03-08T13:48:15;9.80;99.90
5834;DHT22;2943;48.012;10.968;2023-03-08T13:50:43;9.70;99.90
5834;DHT22;2943;48.012;10.968;2023-03-08T13:53:14;9.70;99.90
5834;DHT22;2943;48.012;10.968;2023-03-08T13:55:44;9.70;99.90
5834;DHT22;2943;48.012;10.968;2023-03-08T13:58:23;9.70;99.90
5834;DHT22;2943;48.012;10.968;2023-03-08T14:00:57;9.70;99.90
5834;DHT22;2943;48.012;10.968;2023-03-08T14:03:27;9.70;99.90
5834;DHT22;2943;48.012;10.968;2023-03-08T14:05:54;9.60;99.90
5834;DHT22;2943;48.012;10.968;2023-03-08T14:08:22;9.70;99.90
5834;DHT22;2943;48.012;10.968;2023-03-08T14:10:51;9.60;99.90
5834;DHT22;2943;48.012;10.968;2023-03-08T14:13:25;9.70;99.90
5834;DHT22;2943;48.012;10.968;2023-03-08T14:15:55;9.70;99.90
5834;DHT22;2943;48.012;10.968;2023-03-08T14:18:23;9.70;99.90
5834;DHT22;2943;48.012;10.968;2023-03-08T14:21:01;9.80;99.90
5834;DHT22;2943;48.012;10.968;2023-03-08T14:23:29;9.90;99.90
5834;DHT22;2943;48.012;10.968;2023-03-08T14:25:58;9.90;99.90
5834;DHT22;2943;48.012;10.968;2023-03-08T14:28:38;10.00;99.90
5834;DHT22;2943;48.012;10.968;2023-03-08T14:31:23;10.10;99.90
5834;DHT22;2943;48.012;10.968;2023-03-08T14:33:57;10.10;99.90
5834;DHT22;2943;48.012;10.968;2023-03-08T14:36:26;10.10;99.90
5834;DHT22;2943;48.012;10.968;2023-03-08T14:38:53;10.10;99.90
5834;DHT22;2943;48.012;10.968;2023-03-08T14:41:29;10.20;99.90
5834;DHT22;2943;48.012;10.968;2023-03-08T14:43:58;10.20;99.90
5834;DHT22;2943;48.012;10.968;2023-03-08T14:46:25;10.30;99.90
5834;DHT22;2943;48.012;10.968;2023-03-08T14:48:58;10.30;99.90
5834;DHT22;2943;48.012;10.968;2023-03-08T14:51:28;10.30;99.90
5834;DHT22;2943;48.012;10.968;2023-03-08T14:53:57;10.30;99.90
5834;DHT22;2943;48.012;10.968;2023-03-08T14:56:25;10.30;99.90
5834;DHT22;2943;48.012;10.968;2023-03-08T14:58:53;10.30;99.90
5834;DHT22;2943;48.012;10.968;2023-03-08T15:01:27;10.30;99.90
5834;DHT22;2943;48.012;10.968;2023-03-08T15:03:54;10.30;99.90
5834;DHT22;2943;48.012;10.968;2023-03-08T15:06:24;10.30;99.90
5834;DHT22;2943;48.012;10.968;2023-03-08T15:08:52;10.30;99.90
5834;DHT22;2943;48.012;10.968;2023-03-08T15:11:19;10.30;99.90
5834;DHT22;2943;48.012;10.968;2023-03-08T15:13:46;10.40;99.90
5834;DHT22;2943;48.012;10.968;2023-03-08T15:16:13;10.40;99.90
5834;DHT22;2943;48.012;10.968;2023-03-08T15:18:41;10.40;99.90
5834;DHT22;2943;48.012;10.968;2023-03-08T15:21:11;10.50;99.90
5834;DHT22;2943;48.012;10.968;2023-03-08T15:23:38;10.50;99.90
5834;DHT22;2943;48.012;10.968;2023-03-08T15:26:05;10.60;99.90
5834;DHT22;2943;48.012;10.968;2023-03-08T15:28:33;10.60;99.90
5834;DHT22;2943;48.012;10.968;2023-03-08T15:30:59;10.60;99.90
5834;DHT22;2943;48.012;10.968;2023-03-08T15:33:26;10.60;99.90
5834;DHT22;2943;48.012;10.968;2023-03-08T15:35:54;10.70;99.90
5834;DHT22;2943;48.012;10.968;2023-03-08T15:38:21;10.70;99.90
5834;DHT22;2943;48.012;10.968;2023-03-08T15:40:49;10.70;99.90
5834;DHT22;2943;48.012;10.968;2023-03-08T15:43:15;10.60;99.90
5834;DHT22;2943;48.012;10.968;2023-03-08T15:45:42;10.60;99.90
5834;DHT22;2943;48.012;10.968;2023-03-08T15:48:12;10.50;99.90
5834;DHT22;2943;48.012;10.968;2023-03-08T15:50:39;10.50;99.90
5834;DHT22;2943;48.012;10.968;2023-03-08T15:53:09;10.50;99.90
5834;DHT22;2943;48.012;10.968;2023-03-08T15:55:37;10.40;99.90
5834;DHT22;2943;48.012;10.968;2023-03-08T15:58:04;10.30;99.90
5834;DHT22;2943;48.012;10.968;2023-03-08T16:00:31;10.20;99.90
5834;DHT22;2943;48.012;10.968;2023-03-08T16:02:58;10.20;99.90
5834;DHT22;2943;48.012;10.968;2023-03-08T16:05:26;10.10;99.90
5834;DHT22;2943;48.012;10.968;2023-03-08T16:07:54;10.10;99.90
5834;DHT22;2943;48.012;10.968;2023-03-08T16:10:22;10.00;99.90
5834;DHT22;2943;48.012;10.968;2023-03-08T16:12:49;9.90;99.90
5834;DHT22;2943;48.012;10.968;2023-03-08T16:15:16;9.90;99.90